sensor_id;sensor_type;location;lat;lon;timestamp;P1;durP1;ratioP1;P2;durP2;ratioP2
84027;SDS011;74111;45.650;25.612;2023-12-20T05:33:58;39.90;;;18.80;;
84027;SDS011;74111;45.650;25.612;2023-12-20T05:36:27;68.10;;;30.60;;
84027;SDS011;74111;45.650;25.612;2023-12-20T05:38:57;62.80;;;29.30;;
84027;SDS011;74111;45.650;25.612;2023-12-20T05:41:25;54.20;;;27.70;;
84027;SDS011;74111;45.650;25.612;2023-12-20T05:43:54;33.80;;;19.50;;
84027;SDS011;74111;45.650;25.612;2023-12-20T05:46:23;30.70;;;16.30;;
84027;SDS011;74111;45.650;25.612;2023-12-20T05:48:52;28.30;;;16.20;;
84027;SDS011;74111;45.650;25.612;2023-12-20T05:51:21;30.80;;;16.60;;
84027;SDS011;74111;45.650;25.612;2023-12-20T05:53:51;25.90;;;15.90;;
84027;SDS011;74111;45.650;25.612;2023-12-20T05:56:19;25.60;;;16.20;;
84027;SDS011;74111;45.650;25.612;2023-12-20T05:58:49;24.20;;;13.60;;
84027;SDS011;74111;45.650;25.612;2023-12-20T06:01:19;29.50;;;15.70;;
84027;SDS011;74111;45.650;25.612;2023-12-20T06:03:50;28.10;;;14.00;;
84027;SDS011;74111;45.650;25.612;2023-12-20T06:06:20;26.60;;;13.60;;
84027;SDS011;74111;45.650;25.612;2023-12-20T06:11:18;17.60;;;10.00;;
84027;SDS011;74111;45.650;25.612;2023-12-20T06:13:48;18.80;;;10.40;;
84027;SDS011;74111;45.650;25.612;2023-12-20T06:16:20;25.50;;;15.30;;
84027;SDS011;74111;45.650;25.612;2023-12-20T06:18:49;27.80;;;17.80;;
84027;SDS011;74111;45.650;25.612;2023-12-20T06:21:18;29.00;;;17.40;;
84027;SDS011;74111;45.650;25.612;2023-12-20T06:23:48;32.10;;;16.50;;
84027;SDS011;74111;45.650;25.612;2023-12-20T06:26:17;28.10;;;16.50;;
84027;SDS011;74111;45.650;25.612;2023-12-20T06:28:46;26.80;;;17.70;;
84027;SDS011;74111;45.650;25.612;2023-12-20T06:31:15;26.70;;;15.50;;
84027;SDS011;74111;45.650;25.612;2023-12-20T06:33:45;27.40;;;16.50;;
84027;SDS011;74111;45.650;25.612;2023-12-20T06:36:14;24.80;;;14.60;;
84027;SDS011;74111;45.650;25.612;2023-12-20T06:38:44;24.80;;;15.00;;
84027;SDS011;74111;45.650;25.612;2023-12-20T06:41:13;16.30;;;10.90;;
84027;SDS011;74111;45.650;25.612;2023-12-20T06:46:19;18.60;;;10.30;;
84027;SDS011;74111;45.650;25.612;2023-12-20T06:48:48;26.40;;;13.40;;
84027;SDS011;74111;45.650;25.612;2023-12-20T06:51:17;26.30;;;14.30;;
84027;SDS011;74111;45.650;25.612;2023-12-20T06:53:48;26.30;;;14.60;;
84027;SDS011;74111;45.650;25.612;2023-12-20T06:56:17;32.50;;;21.50;;
84027;SDS011;74111;45.650;25.612;2023-12-20T06:58:47;45.20;;;25.20;;
84027;SDS011;74111;45.650;25.612;2023-12-20T07:01:16;37.40;;;22.20;;
84027;SDS011;74111;45.650;25.612;2023-12-20T07:03:46;41.60;;;27.60;;
84027;SDS011;74111;45.650;25.612;2023-12-20T07:06:16;38.00;;;24.70;;
84027;SDS011;74111;45.650;25.612;2023-12-20T07:11:14;36.30;;;22.90;;
84027;SDS011;74111;45.650;25.612;2023-12-20T07:16:13;30.00;;;18.50;;
84027;SDS011;74111;45.650;25.612;2023-12-20T07:18:42;35.60;;;20.90;;
84027;SDS011;74111;45.650;25.612;2023-12-20T07:21:11;44.90;;;23.50;;
84027;SDS011;74111;45.650;25.612;2023-12-20T07:23:41;47.00;;;26.70;;
84027;SDS011;74111;45.650;25.612;2023-12-20T07:26:10;48.30;;;25.70;;
84027;SDS011;74111;45.650;25.612;2023-12-20T07:28:40;48.60;;;26.00;;
84027;SDS011;74111;45.650;25.612;2023-12-20T07:31:10;44.20;;;22.70;;
84027;SDS011;74111;45.650;25.612;2023-12-20T07:33:38;42.80;;;23.80;;
84027;SDS011;74111;45.650;25.612;2023-12-20T07:36:07;54.80;;;27.90;;
84027;SDS011;74111;45.650;25.612;2023-12-20T07:38:37;48.00;;;26.90;;
84027;SDS011;74111;45.650;25.612;2023-12-20T07:41:06;43.80;;;22.50;;
84027;SDS011;74111;45.650;25.612;2023-12-20T07:43:38;50.30;;;28.40;;
84027;SDS011;74111;45.650;25.612;2023-12-20T07:46:08;43.70;;;23.30;;
84027;SDS011;74111;45.650;25.612;2023-12-20T07:51:09;58.10;;;35.70;;
84027;SDS011;74111;45.650;25.612;2023-12-20T07:56:16;55.10;;;32.60;;
84027;SDS011;74111;45.650;25.612;2023-12-20T07:58:46;58.20;;;33.70;;
84027;SDS011;74111;45.650;25.612;2023-12-20T08:01:20;57.50;;;32.90;;
84027;SDS011;74111;45.650;25.612;2023-12-20T08:03:51;61.90;;;36.10;;
84027;SDS011;74111;45.650;25.612;2023-12-20T08:06:22;58.60;;;33.40;;
84027;SDS011;74111;45.650;25.612;2023-12-20T08:08:51;53.90;;;31.70;;
84027;SDS011;74111;45.650;25.612;2023-12-20T08:11:30;52.30;;;29.90;;
84027;SDS011;74111;45.650;25.612;2023-12-20T08:14:00;50.80;;;28.50;;
84027;SDS011;74111;45.650;25.612;2023-12-20T08:16:29;50.20;;;32.50;;
84027;SDS011;74111;45.650;25.612;2023-12-20T08:21:27;38.00;;;22.80;;
84027;SDS011;74111;45.650;25.612;2023-12-20T08:23:57;47.50;;;24.40;;
84027;SDS011;74111;45.650;25.612;2023-12-20T08:26:26;42.50;;;27.70;;
84027;SDS011;74111;45.650;25.612;2023-12-20T08:28:55;49.20;;;27.40;;
84027;SDS011;74111;45.650;25.612;2023-12-20T08:31:28;35.50;;;18.40;;
84027;SDS011;74111;45.650;25.612;2023-12-20T08:33:58;49.20;;;25.90;;
84027;SDS011;74111;45.650;25.612;2023-12-20T08:36:28;39.70;;;23.10;;
84027;SDS011;74111;45.650;25.612;2023-12-20T08:38:56;41.50;;;23.00;;
84027;SDS011;74111;45.650;25.612;2023-12-20T08:41:26;41.30;;;23.90;;
84027;SDS011;74111;45.650;25.612;2023-12-20T08:43:55;39.00;;;23.30;;
84027;SDS011;74111;45.650;25.612;2023-12-20T08:46:23;40.80;;;25.50;;
84027;SDS011;74111;45.650;25.612;2023-12-20T08:48:52;37.20;;;20.60;;
84027;SDS011;74111;45.650;25.612;2023-12-20T08:51:22;31.80;;;20.90;;
84027;SDS011;74111;45.650;25.612;2023-12-20T08:53:54;38.80;;;23.50;;
84027;SDS011;74111;45.650;25.612;2023-12-20T08:58:53;34.90;;;18.70;;
84027;SDS011;74111;45.650;25.612;2023-12-20T09:01:23;32.90;;;19.50;;
84027;SDS011;74111;45.650;25.612;2023-12-20T09:03:52;33.30;;;18.80;;
84027;SDS011;74111;45.650;25.612;2023-12-20T09:06:22;34.90;;;20.20;;
84027;SDS011;74111;45.650;25.612;2023-12-20T09:08:51;39.90;;;23.20;;
84027;SDS011;74111;45.650;25.612;2023-12-20T09:11:20;37.60;;;19.30;;
84027;SDS011;74111;45.650;25.612;2023-12-20T09:13:49;37.20;;;19.60;;
84027;SDS011;74111;45.650;25.612;2023-12-20T09:16:18;34.30;;;21.30;;
84027;SDS011;74111;45.650;25.612;2023-12-20T09:18:49;42.40;;;24.30;;
84027;SDS011;74111;45.650;25.612;2023-12-20T09:21:19;39.90;;;22.90;;
84027;SDS011;74111;45.650;25.612;2023-12-20T09:23:49;37.70;;;22.80;;
84027;SDS011;74111;45.650;25.612;2023-12-20T09:26:18;43.50;;;22.00;;
84027;SDS011;74111;45.650;25.612;2023-12-20T09:28:51;35.70;;;21.00;;
84027;SDS011;74111;45.650;25.612;2023-12-20T09:31:21;36.80;;;22.40;;
84027;SDS011;74111;45.650;25.612;2023-12-20T09:33:55;32.20;;;19.50;;
84027;SDS011;74111;45.650;25.612;2023-12-20T09:36:30;32.10;;;20.40;;
84027;SDS011;74111;45.650;25.612;2023-12-20T09:39:06;39.00;;;23.40;;
84027;SDS011;74111;45.650;25.612;2023-12-20T09:41:37;38.80;;;25.50;;
84027;SDS011;74111;45.650;25.612;2023-12-20T09:44:14;36.40;;;22.80;;
84027;SDS011;74111;45.650;25.612;2023-12-20T09:46:48;34.10;;;21.70;;
84027;SDS011;74111;45.650;25.612;2023-12-20T09:49:19;34.10;;;20.80;;
84027;SDS011;74111;45.650;25.612;2023-12-20T09:51:54;36.70;;;23.90;;
84027;SDS011;74111;45.650;25.612;2023-12-20T09:54:28;44.40;;;24.00;;
84027;SDS011;74111;45.650;25.612;2023-12-20T09:56:58;38.80;;;25.70;;
84027;SDS011;74111;45.650;25.612;2023-12-20T09:59:27;36.90;;;23.40;;
84027;SDS011;74111;45.650;25.612;2023-12-20T10:01:56;38.40;;;24.60;;
84027;SDS011;74111;45.650;25.612;2023-12-20T10:04:27;40.90;;;24.70;;
84027;SDS011;74111;45.650;25.612;2023-12-20T10:07:01;40.20;;;26.10;;
84027;SDS011;74111;45.650;25.612;2023-12-20T10:09:34;41.60;;;23.60;;
84027;SDS011;74111;45.650;25.612;2023-12-20T10:12:04;40.40;;;25.60;;
84027;SDS011;74111;45.650;25.612;2023-12-20T10:14:34;40.70;;;25.80;;
84027;SDS011;74111;45.650;25.612;2023-12-20T10:17:05;38.70;;;25.70;;
84027;SDS011;74111;45.650;25.612;2023-12-20T10:19:34;43.00;;;24.30;;
84027;SDS011;74111;45.650;25.612;2023-12-20T10:22:04;41.90;;;25.40;;
84027;SDS011;74111;45.650;25.612;2023-12-20T10:24:34;42.30;;;27.00;;
84027;SDS011;74111;45.650;25.612;2023-12-20T10:27:05;45.10;;;26.40;;
84027;SDS011;74111;45.650;25.612;2023-12-20T10:29:35;39.40;;;25.70;;
84027;SDS011;74111;45.650;25.612;2023-12-20T10:32:22;37.90;;;24.70;;
84027;SDS011;74111;45.650;25.612;2023-12-20T10:34:56;38.50;;;25.90;;
84027;SDS011;74111;45.650;25.612;2023-12-20T10:37:25;42.70;;;27.10;;
84027;SDS011;74111;45.650;25.612;2023-12-20T10:39:55;40.10;;;25.90;;
84027;SDS011;74111;45.650;25.612;2023-12-20T10:42:26;42.60;;;24.90;;
84027;SDS011;74111;45.650;25.612;2023-12-20T10:44:56;46.70;;;28.40;;
84027;SDS011;74111;45.650;25.612;2023-12-20T10:47:24;42.60;;;25.50;;
84027;SDS011;74111;45.650;25.612;2023-12-20T10:49:55;50.80;;;30.40;;
84027;SDS011;74111;45.650;25.612;2023-12-20T10:52:25;47.70;;;29.30;;
84027;SDS011;74111;45.650;25.612;2023-12-20T10:54:58;54.20;;;31.30;;
84027;SDS011;74111;45.650;25.612;2023-12-20T10:57:27;59.50;;;35.20;;
84027;SDS011;74111;45.650;25.612;2023-12-20T10:59:58;46.30;;;31.00;;
84027;SDS011;74111;45.650;25.612;2023-12-20T11:02:39;47.80;;;30.60;;
84027;SDS011;74111;45.650;25.612;2023-12-20T11:08:09;47.20;;;31.80;;
84027;SDS011;74111;45.650;25.612;2023-12-20T11:10:47;50.00;;;30.80;;
84027;SDS011;74111;45.650;25.612;2023-12-20T11:13:48;45.70;;;26.90;;
84027;SDS011;74111;45.650;25.612;2023-12-20T11:16:25;52.10;;;34.10;;
84027;SDS011;74111;45.650;25.612;2023-12-20T11:19:08;52.30;;;34.30;;
84027;SDS011;74111;45.650;25.612;2023-12-20T11:21:42;56.20;;;35.10;;
84027;SDS011;74111;45.650;25.612;2023-12-20T11:24:12;56.00;;;34.50;;
84027;SDS011;74111;45.650;25.612;2023-12-20T11:26:41;59.50;;;34.90;;
84027;SDS011;74111;45.650;25.612;2023-12-20T11:29:32;59.70;;;35.60;;
84027;SDS011;74111;45.650;25.612;2023-12-20T11:32:02;53.80;;;32.80;;
84027;SDS011;74111;45.650;25.612;2023-12-20T11:34:32;50.10;;;31.10;;
84027;SDS011;74111;45.650;25.612;2023-12-20T11:37:02;58.50;;;34.50;;
84027;SDS011;74111;45.650;25.612;2023-12-20T11:39:34;61.10;;;37.50;;
84027;SDS011;74111;45.650;25.612;2023-12-20T11:42:06;50.20;;;32.60;;
84027;SDS011;74111;45.650;25.612;2023-12-20T11:44:36;62.10;;;39.30;;
84027;SDS011;74111;45.650;25.612;2023-12-20T11:47:06;60.30;;;37.40;;
84027;SDS011;74111;45.650;25.612;2023-12-20T11:49:36;61.40;;;40.20;;
84027;SDS011;74111;45.650;25.612;2023-12-20T11:52:05;60.30;;;37.50;;
84027;SDS011;74111;45.650;25.612;2023-12-20T11:54:34;57.80;;;34.40;;
84027;SDS011;74111;45.650;25.612;2023-12-20T11:57:04;50.80;;;33.10;;
84027;SDS011;74111;45.650;25.612;2023-12-20T11:59:33;62.20;;;32.90;;
84027;SDS011;74111;45.650;25.612;2023-12-20T12:02:01;56.10;;;34.80;;
84027;SDS011;74111;45.650;25.612;2023-12-20T12:04:31;56.30;;;31.50;;
84027;SDS011;74111;45.650;25.612;2023-12-20T12:07:01;53.80;;;32.40;;
84027;SDS011;74111;45.650;25.612;2023-12-20T12:09:32;60.10;;;35.40;;
84027;SDS011;74111;45.650;25.612;2023-12-20T12:12:01;54.30;;;34.70;;
84027;SDS011;74111;45.650;25.612;2023-12-20T12:14:30;58.10;;;35.40;;
84027;SDS011;74111;45.650;25.612;2023-12-20T12:17:00;56.00;;;33.80;;
84027;SDS011;74111;45.650;25.612;2023-12-20T12:19:30;47.10;;;30.50;;
84027;SDS011;74111;45.650;25.612;2023-12-20T12:22:04;53.90;;;33.40;;
84027;SDS011;74111;45.650;25.612;2023-12-20T12:24:43;49.90;;;30.60;;
84027;SDS011;74111;45.650;25.612;2023-12-20T12:27:13;49.60;;;32.00;;
84027;SDS011;74111;45.650;25.612;2023-12-20T12:29:59;58.90;;;32.40;;
84027;SDS011;74111;45.650;25.612;2023-12-20T12:32:31;43.70;;;29.30;;
84027;SDS011;74111;45.650;25.612;2023-12-20T12:35:02;48.80;;;29.20;;
84027;SDS011;74111;45.650;25.612;2023-12-20T12:37:33;43.60;;;26.90;;
84027;SDS011;74111;45.650;25.612;2023-12-20T12:40:05;52.60;;;27.10;;
84027;SDS011;74111;45.650;25.612;2023-12-20T12:42:36;44.00;;;25.50;;
84027;SDS011;74111;45.650;25.612;2023-12-20T12:45:08;46.30;;;26.50;;
84027;SDS011;74111;45.650;25.612;2023-12-20T12:47:38;45.80;;;27.40;;
84027;SDS011;74111;45.650;25.612;2023-12-20T12:50:08;43.50;;;25.10;;
84027;SDS011;74111;45.650;25.612;2023-12-20T12:52:38;42.00;;;26.50;;
84027;SDS011;74111;45.650;25.612;2023-12-20T12:55:08;40.80;;;23.80;;
84027;SDS011;74111;45.650;25.612;2023-12-20T12:57:38;36.70;;;24.10;;
84027;SDS011;74111;45.650;25.612;2023-12-20T13:00:08;46.10;;;27.20;;
84027;SDS011;74111;45.650;25.612;2023-12-20T13:02:37;43.30;;;26.40;;
84027;SDS011;74111;45.650;25.612;2023-12-20T13:05:11;46.40;;;25.20;;
84027;SDS011;74111;45.650;25.612;2023-12-20T13:07:40;41.70;;;24.00;;
84027;SDS011;74111;45.650;25.612;2023-12-20T13:10:09;42.10;;;23.40;;
84027;SDS011;74111;45.650;25.612;2023-12-20T13:12:39;37.90;;;22.80;;
84027;SDS011;74111;45.650;25.612;2023-12-20T13:15:08;45.00;;;26.40;;
84027;SDS011;74111;45.650;25.612;2023-12-20T13:17:37;40.70;;;25.20;;
84027;SDS011;74111;45.650;25.612;2023-12-20T13:20:07;45.40;;;24.00;;
84027;SDS011;74111;45.650;25.612;2023-12-20T13:22:36;46.90;;;26.30;;
84027;SDS011;74111;45.650;25.612;2023-12-20T13:25:05;39.60;;;23.50;;
84027;SDS011;74111;45.650;25.612;2023-12-20T13:27:35;41.40;;;24.60;;
84027;SDS011;74111;45.650;25.612;2023-12-20T13:32:33;40.30;;;22.50;;
84027;SDS011;74111;45.650;25.612;2023-12-20T13:35:02;40.90;;;23.60;;
84027;SDS011;74111;45.650;25.612;2023-12-20T13:37:34;41.30;;;21.60;;
84027;SDS011;74111;45.650;25.612;2023-12-20T13:40:04;32.10;;;17.80;;
84027;SDS011;74111;45.650;25.612;2023-12-20T13:42:34;40.60;;;18.00;;
84027;SDS011;74111;45.650;25.612;2023-12-20T13:45:04;31.70;;;18.30;;
84027;SDS011;74111;45.650;25.612;2023-12-20T13:47:34;36.30;;;19.60;;
84027;SDS011;74111;45.650;25.612;2023-12-20T13:50:03;35.60;;;18.70;;
84027;SDS011;74111;45.650;25.612;2023-12-20T13:52:34;24.80;;;16.00;;
84027;SDS011;74111;45.650;25.612;2023-12-20T13:55:06;33.90;;;18.70;;
84027;SDS011;74111;45.650;25.612;2023-12-20T13:57:36;36.20;;;21.30;;
84027;SDS011;74111;45.650;25.612;2023-12-20T14:00:23;36.20;;;22.10;;
84027;SDS011;74111;45.650;25.612;2023-12-20T14:02:51;35.10;;;20.50;;
84027;SDS011;74111;45.650;25.612;2023-12-20T14:05:21;37.40;;;21.20;;
84027;SDS011;74111;45.650;25.612;2023-12-20T14:07:56;31.90;;;20.80;;
84027;SDS011;74111;45.650;25.612;2023-12-20T14:10:28;38.40;;;22.50;;
84027;SDS011;74111;45.650;25.612;2023-12-20T14:12:57;41.30;;;23.80;;
84027;SDS011;74111;45.650;25.612;2023-12-20T14:15:26;38.60;;;22.60;;
84027;SDS011;74111;45.650;25.612;2023-12-20T14:20:24;37.10;;;21.30;;
84027;SDS011;74111;45.650;25.612;2023-12-20T14:22:57;49.90;;;29.30;;
84027;SDS011;74111;45.650;25.612;2023-12-20T14:25:27;56.80;;;33.40;;
84027;SDS011;74111;45.650;25.612;2023-12-20T14:28:01;54.40;;;30.50;;
84027;SDS011;74111;45.650;25.612;2023-12-20T14:30:32;42.70;;;27.00;;
84027;SDS011;74111;45.650;25.612;2023-12-20T14:33:04;48.00;;;25.50;;
84027;SDS011;74111;45.650;25.612;2023-12-20T14:35:34;48.70;;;29.50;;
84027;SDS011;74111;45.650;25.612;2023-12-20T14:38:03;52.30;;;30.80;;
84027;SDS011;74111;45.650;25.612;2023-12-20T14:40:32;43.30;;;24.00;;
84027;SDS011;74111;45.650;25.612;2023-12-20T14:43:01;43.10;;;26.10;;
84027;SDS011;74111;45.650;25.612;2023-12-20T14:45:33;42.00;;;25.40;;
84027;SDS011;74111;45.650;25.612;2023-12-20T14:48:02;42.70;;;25.30;;
84027;SDS011;74111;45.650;25.612;2023-12-20T14:50:31;44.00;;;25.20;;
84027;SDS011;74111;45.650;25.612;2023-12-20T14:53:00;43.20;;;25.10;;
84027;SDS011;74111;45.650;25.612;2023-12-20T14:55:29;43.70;;;26.00;;
84027;SDS011;74111;45.650;25.612;2023-12-20T14:57:58;36.70;;;22.50;;
84027;SDS011;74111;45.650;25.612;2023-12-20T15:00:28;53.50;;;27.20;;
84027;SDS011;74111;45.650;25.612;2023-12-20T15:02:59;55.80;;;28.90;;
84027;SDS011;74111;45.650;25.612;2023-12-20T15:05:29;48.90;;;27.80;;
84027;SDS011;74111;45.650;25.612;2023-12-20T15:07:57;53.00;;;26.70;;
84027;SDS011;74111;45.650;25.612;2023-12-20T15:10:27;41.50;;;23.90;;
84027;SDS011;74111;45.650;25.612;2023-12-20T15:12:57;44.80;;;23.60;;
84027;SDS011;74111;45.650;25.612;2023-12-20T15:15:26;47.80;;;28.60;;
84027;SDS011;74111;45.650;25.612;2023-12-20T15:17:57;53.30;;;32.20;;
84027;SDS011;74111;45.650;25.612;2023-12-20T15:20:25;54.40;;;31.50;;
84027;SDS011;74111;45.650;25.612;2023-12-20T15:22:54;55.50;;;32.10;;
84027;SDS011;74111;45.650;25.612;2023-12-20T15:25:24;64.00;;;36.00;;
84027;SDS011;74111;45.650;25.612;2023-12-20T15:27:53;56.40;;;34.50;;
84027;SDS011;74111;45.650;25.612;2023-12-20T15:32:53;47.10;;;27.60;;
84027;SDS011;74111;45.650;25.612;2023-12-20T15:35:23;45.60;;;27.50;;
84027;SDS011;74111;45.650;25.612;2023-12-20T15:37:52;56.20;;;32.80;;
84027;SDS011;74111;45.650;25.612;2023-12-20T15:40:21;63.70;;;34.90;;
84027;SDS011;74111;45.650;25.612;2023-12-20T15:42:51;54.60;;;31.50;;
84027;SDS011;74111;45.650;25.612;2023-12-20T15:45:21;53.80;;;32.10;;
84027;SDS011;74111;45.650;25.612;2023-12-20T15:47:50;51.00;;;30.60;;
84027;SDS011;74111;45.650;25.612;2023-12-20T15:52:48;49.30;;;26.80;;
84027;SDS011;74111;45.650;25.612;2023-12-20T15:55:17;62.20;;;34.20;;
84027;SDS011;74111;45.650;25.612;2023-12-20T15:57:46;50.00;;;27.80;;
84027;SDS011;74111;45.650;25.612;2023-12-20T16:00:22;55.60;;;30.80;;
84027;SDS011;74111;45.650;25.612;2023-12-20T16:02:51;55.20;;;30.10;;
84027;SDS011;74111;45.650;25.612;2023-12-20T16:05:20;54.90;;;32.30;;
84027;SDS011;74111;45.650;25.612;2023-12-20T16:07:49;57.50;;;33.80;;
84027;SDS011;74111;45.650;25.612;2023-12-20T16:10:20;69.00;;;44.60;;
84027;SDS011;74111;45.650;25.612;2023-12-20T16:12:49;72.00;;;42.40;;
84027;SDS011;74111;45.650;25.612;2023-12-20T16:15:18;65.20;;;38.30;;
84027;SDS011;74111;45.650;25.612;2023-12-20T16:17:47;61.60;;;37.30;;
84027;SDS011;74111;45.650;25.612;2023-12-20T16:20:17;56.70;;;35.80;;
84027;SDS011;74111;45.650;25.612;2023-12-20T16:22:46;60.20;;;34.50;;
84027;SDS011;74111;45.650;25.612;2023-12-20T16:25:15;61.90;;;35.10;;
84027;SDS011;74111;45.650;25.612;2023-12-20T16:27:45;62.00;;;33.30;;
84027;SDS011;74111;45.650;25.612;2023-12-20T16:30:17;63.20;;;35.30;;
84027;SDS011;74111;45.650;25.612;2023-12-20T16:32:47;57.50;;;33.20;;
84027;SDS011;74111;45.650;25.612;2023-12-20T16:35:18;60.60;;;35.00;;
84027;SDS011;74111;45.650;25.612;2023-12-20T16:37:47;57.10;;;34.60;;
